sensor_id;sensor_type;location;lat;lon;timestamp;pressure;altitude;pressure_sealevel;temperature;humidity
9277;BME280;4676;42.678;23.244;2023-12-22T00:01:10;92571.06;;;0.54;100.00
9277;BME280;4676;42.678;23.244;2023-12-22T00:03:37;92562.28;;;0.41;100.00
9277;BME280;4676;42.678;23.244;2023-12-22T00:06:04;92562.19;;;0.44;100.00
9277;BME280;4676;42.678;23.244;2023-12-22T00:08:31;92561.09;;;0.54;100.00
9277;BME280;4676;42.678;23.244;2023-12-22T00:10:57;92557.25;;;0.42;100.00
9277;BME280;4676;42.678;23.244;2023-12-22T00:13:25;92559.59;;;0.48;100.00
9277;BME280;4676;42.678;23.244;2023-12-22T00:15:53;92572.44;;;0.64;100.00
9277;BME280;4676;42.678;23.244;2023-12-22T00:18:19;92516.19;;;0.26;100.00
9277;BME280;4676;42.678;23.244;2023-12-22T00:20:46;92553.78;;;0.48;100.00
9277;BME280;4676;42.678;23.244;2023-12-22T00:23:13;92546.13;;;0.56;100.00
9277;BME280;4676;42.678;23.244;2023-12-22T00:25:39;92536.97;;;0.56;100.00
9277;BME280;4676;42.678;23.244;2023-12-22T00:28:06;92538.19;;;0.71;100.00
9277;BME280;4676;42.678;23.244;2023-12-22T00:30:34;92534.03;;;0.71;100.00
9277;BME280;4676;42.678;23.244;2023-12-22T00:33:01;92517.69;;;0.61;100.00
9277;BME280;4676;42.678;23.244;2023-12-22T00:35:28;92515.84;;;0.68;100.00
9277;BME280;4676;42.678;23.244;2023-12-22T00:37:55;92506.09;;;0.60;100.00
9277;BME280;4676;42.678;23.244;2023-12-22T00:40:21;92494.78;;;0.78;100.00
9277;BME280;4676;42.678;23.244;2023-12-22T00:42:48;92475.31;;;0.63;100.00
9277;BME280;4676;42.678;23.244;2023-12-22T00:45:15;92490.38;;;0.87;100.00
9277;BME280;4676;42.678;23.244;2023-12-22T00:47:43;92505.25;;;0.89;100.00
9277;BME280;4676;42.678;23.244;2023-12-22T00:50:09;92526.44;;;0.76;100.00
9277;BME280;4676;42.678;23.244;2023-12-22T00:52:36;92528.19;;;0.72;100.00
9277;BME280;4676;42.678;23.244;2023-12-22T00:55:03;92508.13;;;0.77;100.00
9277;BME280;4676;42.678;23.244;2023-12-22T00:57:30;92509.72;;;0.79;100.00
9277;BME280;4676;42.678;23.244;2023-12-22T00:59:56;92513.75;;;0.83;100.00
9277;BME280;4676;42.678;23.244;2023-12-22T01:02:23;92503.88;;;0.80;100.00
9277;BME280;4676;42.678;23.244;2023-12-22T01:04:51;92514.47;;;0.87;100.00
9277;BME280;4676;42.678;23.244;2023-12-22T01:07:18;92511.19;;;0.85;100.00
9277;BME280;4676;42.678;23.244;2023-12-22T01:09:45;92525.19;;;0.90;100.00
9277;BME280;4676;42.678;23.244;2023-12-22T01:12:11;92517.06;;;0.84;100.00
9277;BME280;4676;42.678;23.244;2023-12-22T01:14:38;92513.47;;;0.92;100.00
9277;BME280;4676;42.678;23.244;2023-12-22T01:17:05;92498.59;;;0.89;100.00
9277;BME280;4676;42.678;23.244;2023-12-22T01:19:32;92517.69;;;0.90;100.00
9277;BME280;4676;42.678;23.244;2023-12-22T01:22:00;92501.09;;;0.89;100.00
9277;BME280;4676;42.678;23.244;2023-12-22T01:24:27;92498.38;;;0.97;100.00
9277;BME280;4676;42.678;23.244;2023-12-22T01:26:54;92498.59;;;0.89;100.00
9277;BME280;4676;42.678;23.244;2023-12-22T01:29:21;92504.44;;;0.88;100.00
9277;BME280;4676;42.678;23.244;2023-12-22T01:31:47;92500.19;;;0.92;100.00
9277;BME280;4676;42.678;23.244;2023-12-22T01:34:14;92495.47;;;0.83;100.00
9277;BME280;4676;42.678;23.244;2023-12-22T01:36:41;92488.19;;;0.77;100.00
9277;BME280;4676;42.678;23.244;2023-12-22T01:39:09;92470.50;;;0.84;100.00
9277;BME280;4676;42.678;23.244;2023-12-22T01:41:35;92462.28;;;1.09;100.00
9277;BME280;4676;42.678;23.244;2023-12-22T01:44:02;92486.94;;;1.18;100.00
9277;BME280;4676;42.678;23.244;2023-12-22T01:46:29;92456.31;;;1.13;100.00
9277;BME280;4676;42.678;23.244;2023-12-22T01:48:56;92454.88;;;1.06;100.00
9277;BME280;4676;42.678;23.244;2023-12-22T01:51:23;92450.47;;;1.14;100.00
9277;BME280;4676;42.678;23.244;2023-12-22T01:53:50;92455.91;;;1.00;100.00
9277;BME280;4676;42.678;23.244;2023-12-22T01:56:19;92468.88;;;1.10;100.00
9277;BME280;4676;42.678;23.244;2023-12-22T01:58:46;92458.69;;;1.17;100.00
9277;BME280;4676;42.678;23.244;2023-12-22T02:01:13;92469.06;;;1.05;100.00
9277;BME280;4676;42.678;23.244;2023-12-22T02:03:40;92466.00;;;0.95;100.00
9277;BME280;4676;42.678;23.244;2023-12-22T02:06:07;92464.47;;;0.91;100.00
9277;BME280;4676;42.678;23.244;2023-12-22T02:08:34;92449.34;;;0.97;100.00
9277;BME280;4676;42.678;23.244;2023-12-22T02:11:03;92447.81;;;0.92;100.00
9277;BME280;4676;42.678;23.244;2023-12-22T02:13:31;92429.47;;;0.94;100.00
9277;BME280;4676;42.678;23.244;2023-12-22T02:16:04;92438.50;;;0.98;100.00
9277;BME280;4676;42.678;23.244;2023-12-22T02:18:33;92428.75;;;0.91;100.00
9277;BME280;4676;42.678;23.244;2023-12-22T02:21:03;92416.91;;;0.97;100.00
9277;BME280;4676;42.678;23.244;2023-12-22T02:23:31;92437.69;;;0.98;100.00
9277;BME280;4676;42.678;23.244;2023-12-22T02:26:06;92414.28;;;1.02;100.00
9277;BME280;4676;42.678;23.244;2023-12-22T02:28:34;92422.53;;;1.04;100.00
9277;BME280;4676;42.678;23.244;2023-12-22T02:31:05;92433.22;;;1.08;100.00
9277;BME280;4676;42.678;23.244;2023-12-22T02:33:36;92423.13;;;1.11;100.00
9277;BME280;4676;42.678;23.244;2023-12-22T02:36:06;92419.91;;;1.09;100.00
9277;BME280;4676;42.678;23.244;2023-12-22T02:38:36;92437.97;;;1.15;100.00
9277;BME280;4676;42.678;23.244;2023-12-22T02:41:03;92457.13;;;1.13;100.00
9277;BME280;4676;42.678;23.244;2023-12-22T02:43:31;92432.44;;;1.06;100.00
9277;BME280;4676;42.678;23.244;2023-12-22T02:45:58;92433.50;;;1.25;100.00
9277;BME280;4676;42.678;23.244;2023-12-22T02:48:25;92428.63;;;1.22;100.00
9277;BME280;4676;42.678;23.244;2023-12-22T02:50:51;92431.31;;;1.16;100.00
9277;BME280;4676;42.678;23.244;2023-12-22T02:53:18;92408.50;;;1.00;100.00
9277;BME280;4676;42.678;23.244;2023-12-22T02:55:46;92420.22;;;0.98;100.00
9277;BME280;4676;42.678;23.244;2023-12-22T02:58:13;92405.81;;;1.06;100.00
9277;BME280;4676;42.678;23.244;2023-12-22T03:00:39;92402.13;;;1.18;100.00
9277;BME280;4676;42.678;23.244;2023-12-22T03:03:06;92388.38;;;1.31;100.00
9277;BME280;4676;42.678;23.244;2023-12-22T03:05:33;92388.47;;;1.29;100.00
9277;BME280;4676;42.678;23.244;2023-12-22T03:08:00;92386.59;;;1.34;100.00
9277;BME280;4676;42.678;23.244;2023-12-22T03:10:28;92378.84;;;1.43;100.00
9277;BME280;4676;42.678;23.244;2023-12-22T03:12:57;92390.72;;;1.37;100.00
9277;BME280;4676;42.678;23.244;2023-12-22T03:15:22;92403.44;;;1.29;100.00
9277;BME280;4676;42.678;23.244;2023-12-22T03:17:49;92409.03;;;1.36;100.00
9277;BME280;4676;42.678;23.244;2023-12-22T03:20:16;92417.22;;;1.39;100.00
9277;BME280;4676;42.678;23.244;2023-12-22T03:22:43;92413.41;;;1.29;100.00
9277;BME280;4676;42.678;23.244;2023-12-22T03:25:10;92408.22;;;1.35;100.00
9277;BME280;4676;42.678;23.244;2023-12-22T03:27:36;92412.28;;;1.38;100.00
9277;BME280;4676;42.678;23.244;2023-12-22T03:30:06;92397.13;;;1.18;100.00
9277;BME280;4676;42.678;23.244;2023-12-22T03:32:33;92405.31;;;1.23;100.00
9277;BME280;4676;42.678;23.244;2023-12-22T03:34:59;92414.88;;;1.35;100.00
9277;BME280;4676;42.678;23.244;2023-12-22T03:37:27;92412.44;;;1.33;100.00
9277;BME280;4676;42.678;23.244;2023-12-22T03:39:54;92409.16;;;1.31;100.00
9277;BME280;4676;42.678;23.244;2023-12-22T03:42:21;92408.81;;;1.42;100.00
9277;BME280;4676;42.678;23.244;2023-12-22T03:44:47;92413.91;;;1.39;100.00
9277;BME280;4676;42.678;23.244;2023-12-22T03:47:15;92409.91;;;1.60;100.00
9277;BME280;4676;42.678;23.244;2023-12-22T03:49:42;92420.91;;;1.54;100.00
9277;BME280;4676;42.678;23.244;2023-12-22T03:52:09;92410.34;;;1.46;100.00
9277;BME280;4676;42.678;23.244;2023-12-22T03:54:36;92410.34;;;1.71;100.00
9277;BME280;4676;42.678;23.244;2023-12-22T03:57:03;92416.56;;;1.59;100.00
9277;BME280;4676;42.678;23.244;2023-12-22T03:59:29;92409.69;;;1.66;100.00
9277;BME280;4676;42.678;23.244;2023-12-22T04:01:56;92422.22;;;1.64;100.00
9277;BME280;4676;42.678;23.244;2023-12-22T04:04:27;92407.47;;;1.58;100.00
9277;BME280;4676;42.678;23.244;2023-12-22T04:06:54;92405.94;;;1.54;100.00
9277;BME280;4676;42.678;23.244;2023-12-22T04:09:21;92410.25;;;1.49;100.00
9277;BME280;4676;42.678;23.244;2023-12-22T04:11:47;92416.06;;;1.49;100.00
9277;BME280;4676;42.678;23.244;2023-12-22T04:14:14;92405.69;;;1.62;100.00
9277;BME280;4676;42.678;23.244;2023-12-22T04:16:42;92418.69;;;1.70;100.00
9277;BME280;4676;42.678;23.244;2023-12-22T04:19:08;92406.69;;;1.56;100.00
9277;BME280;4676;42.678;23.244;2023-12-22T04:21:36;92407.72;;;1.50;100.00
9277;BME280;4676;42.678;23.244;2023-12-22T04:24:04;92401.78;;;1.78;100.00
9277;BME280;4676;42.678;23.244;2023-12-22T04:26:30;92401.09;;;1.74;100.00
9277;BME280;4676;42.678;23.244;2023-12-22T04:28:57;92396.31;;;1.91;100.00
9277;BME280;4676;42.678;23.244;2023-12-22T04:31:24;92393.38;;;1.80;100.00
9277;BME280;4676;42.678;23.244;2023-12-22T04:33:50;92393.06;;;1.89;100.00
9277;BME280;4676;42.678;23.244;2023-12-22T04:36:17;92391.44;;;1.88;100.00
9277;BME280;4676;42.678;23.244;2023-12-22T04:38:45;92389.78;;;1.87;100.00
9277;BME280;4676;42.678;23.244;2023-12-22T04:41:12;92377.72;;;2.00;100.00
9277;BME280;4676;42.678;23.244;2023-12-22T04:43:40;92377.63;;;1.78;100.00
9277;BME280;4676;42.678;23.244;2023-12-22T04:46:06;92371.94;;;1.98;100.00
9277;BME280;4676;42.678;23.244;2023-12-22T04:48:33;92370.03;;;1.81;100.00
9277;BME280;4676;42.678;23.244;2023-12-22T04:51:00;92360.16;;;2.01;100.00
9277;BME280;4676;42.678;23.244;2023-12-22T04:53:27;92369.00;;;1.87;100.00
9277;BME280;4676;42.678;23.244;2023-12-22T04:55:55;92364.66;;;1.92;100.00
9277;BME280;4676;42.678;23.244;2023-12-22T04:58:22;92362.56;;;1.81;100.00
9277;BME280;4676;42.678;23.244;2023-12-22T05:00:49;92365.19;;;1.77;100.00
9277;BME280;4676;42.678;23.244;2023-12-22T05:03:16;92354.00;;;1.87;100.00
9277;BME280;4676;42.678;23.244;2023-12-22T05:05:42;92356.69;;;2.06;100.00
9277;BME280;4676;42.678;23.244;2023-12-22T05:08:09;92351.38;;;1.91;100.00
9277;BME280;4676;42.678;23.244;2023-12-22T05:10:36;92349.09;;;1.85;100.00
9277;BME280;4676;42.678;23.244;2023-12-22T05:13:04;92359.44;;;1.98;100.00
9277;BME280;4676;42.678;23.244;2023-12-22T05:15:33;92345.50;;;1.92;100.00
9277;BME280;4676;42.678;23.244;2023-12-22T05:18:00;92329.34;;;2.68;100.00
9277;BME280;4676;42.678;23.244;2023-12-22T05:20:26;92333.22;;;3.17;100.00
9277;BME280;4676;42.678;23.244;2023-12-22T05:22:53;92331.63;;;3.75;100.00
9277;BME280;4676;42.678;23.244;2023-12-22T05:25:20;92326.19;;;4.04;100.00
9277;BME280;4676;42.678;23.244;2023-12-22T05:27:46;92348.22;;;4.35;100.00
9277;BME280;4676;42.678;23.244;2023-12-22T05:30:15;92340.44;;;4.58;100.00
9277;BME280;4676;42.678;23.244;2023-12-22T05:32:41;92347.75;;;4.81;100.00
9277;BME280;4676;42.678;23.244;2023-12-22T05:35:09;92340.59;;;4.91;100.00
9277;BME280;4676;42.678;23.244;2023-12-22T05:37:36;92341.28;;;4.94;100.00
9277;BME280;4676;42.678;23.244;2023-12-22T05:40:04;92341.94;;;4.98;100.00
9277;BME280;4676;42.678;23.244;2023-12-22T05:42:32;92334.94;;;5.04;100.00
9277;BME280;4676;42.678;23.244;2023-12-22T05:44:58;92349.25;;;5.02;100.00
9277;BME280;4676;42.678;23.244;2023-12-22T05:47:26;92352.00;;;5.15;100.00
9277;BME280;4676;42.678;23.244;2023-12-22T05:49:53;92343.75;;;5.30;100.00
9277;BME280;4676;42.678;23.244;2023-12-22T05:52:20;92367.97;;;5.48;100.00
9277;BME280;4676;42.678;23.244;2023-12-22T05:54:46;92351.94;;;5.51;100.00
9277;BME280;4676;42.678;23.244;2023-12-22T05:57:13;92353.69;;;5.49;100.00
9277;BME280;4676;42.678;23.244;2023-12-22T05:59:40;92329.78;;;5.59;100.00
9277;BME280;4676;42.678;23.244;2023-12-22T06:02:06;92345.50;;;5.63;100.00
9277;BME280;4676;42.678;23.244;2023-12-22T06:04:34;92345.50;;;5.63;100.00
9277;BME280;4676;42.678;23.244;2023-12-22T06:07:01;92350.22;;;5.69;100.00
9277;BME280;4676;42.678;23.244;2023-12-22T06:09:28;92343.56;;;5.68;100.00
9277;BME280;4676;42.678;23.244;2023-12-22T06:11:55;92350.59;;;5.61;100.00
9277;BME280;4676;42.678;23.244;2023-12-22T06:14:23;92356.34;;;5.63;100.00
9277;BME280;4676;42.678;23.244;2023-12-22T06:16:49;92360.78;;;5.58;100.00
9277;BME280;4676;42.678;23.244;2023-12-22T06:19:19;92352.94;;;5.64;100.00
9277;BME280;4676;42.678;23.244;2023-12-22T06:21:47;92369.56;;;5.67;100.00
9277;BME280;4676;42.678;23.244;2023-12-22T06:24:14;92363.44;;;5.72;100.00
9277;BME280;4676;42.678;23.244;2023-12-22T06:26:41;92369.03;;;5.77;100.00
9277;BME280;4676;42.678;23.244;2023-12-22T06:29:08;92350.44;;;5.47;100.00
9277;BME280;4676;42.678;23.244;2023-12-22T06:31:35;92378.81;;;5.49;100.00
9277;BME280;4676;42.678;23.244;2023-12-22T06:34:02;92377.91;;;5.16;100.00
9277;BME280;4676;42.678;23.244;2023-12-22T06:36:28;92379.06;;;4.91;100.00
9277;BME280;4676;42.678;23.244;2023-12-22T06:38:57;92400.44;;;4.63;100.00
9277;BME280;4676;42.678;23.244;2023-12-22T06:41:25;92393.69;;;4.46;100.00
9277;BME280;4676;42.678;23.244;2023-12-22T06:43:53;92392.53;;;4.34;100.00
9277;BME280;4676;42.678;23.244;2023-12-22T06:46:20;92394.75;;;4.40;100.00
9277;BME280;4676;42.678;23.244;2023-12-22T06:48:48;92384.41;;;3.90;100.00
9277;BME280;4676;42.678;23.244;2023-12-22T06:51:18;92399.25;;;3.95;100.00
9277;BME280;4676;42.678;23.244;2023-12-22T06:53:45;92390.19;;;3.72;100.00
9277;BME280;4676;42.678;23.244;2023-12-22T06:56:18;92370.16;;;3.72;100.00
9277;BME280;4676;42.678;23.244;2023-12-22T06:58:46;92394.00;;;3.61;100.00
9277;BME280;4676;42.678;23.244;2023-12-22T07:01:18;92388.19;;;3.60;100.00
9277;BME280;4676;42.678;23.244;2023-12-22T07:03:45;92391.75;;;3.75;100.00
9277;BME280;4676;42.678;23.244;2023-12-22T07:06:13;92389.66;;;3.84;100.00
9277;BME280;4676;42.678;23.244;2023-12-22T07:08:40;92337.69;;;3.89;100.00
9277;BME280;4676;42.678;23.244;2023-12-22T07:11:08;92385.19;;;4.48;100.00
9277;BME280;4676;42.678;23.244;2023-12-22T07:13:36;92389.00;;;4.57;100.00
9277;BME280;4676;42.678;23.244;2023-12-22T07:16:03;92382.41;;;4.73;100.00
9277;BME280;4676;42.678;23.244;2023-12-22T07:18:29;92381.44;;;4.94;100.00
9277;BME280;4676;42.678;23.244;2023-12-22T07:20:56;92393.34;;;5.08;100.00
9277;BME280;4676;42.678;23.244;2023-12-22T12:34:10;92406.03;;;7.05;100.00
9277;BME280;4676;42.678;23.244;2023-12-22T12:36:38;92397.50;;;6.92;100.00
9277;BME280;4676;42.678;23.244;2023-12-22T12:39:07;92388.41;;;6.89;100.00
9277;BME280;4676;42.678;23.244;2023-12-22T12:41:36;92369.13;;;7.04;100.00
9277;BME280;4676;42.678;23.244;2023-12-22T12:44:04;92372.75;;;7.00;100.00
9277;BME280;4676;42.678;23.244;2023-12-22T12:46:34;92360.88;;;6.86;100.00
9277;BME280;4676;42.678;23.244;2023-12-22T12:49:04;92357.41;;;6.89;100.00
9277;BME280;4676;42.678;23.244;2023-12-22T12:51:36;92367.28;;;6.92;100.00
9277;BME280;4676;42.678;23.244;2023-12-22T12:54:04;92373.31;;;6.89;100.00
9277;BME280;4676;42.678;23.244;2023-12-22T12:56:36;92391.19;;;6.85;100.00
9277;BME280;4676;42.678;23.244;2023-12-22T12:59:07;92397.25;;;6.81;100.00
9277;BME280;4676;42.678;23.244;2023-12-22T13:01:37;92411.00;;;6.75;100.00
9277;BME280;4676;42.678;23.244;2023-12-22T13:04:05;92416.75;;;6.77;100.00
9277;BME280;4676;42.678;23.244;2023-12-22T13:06:32;92421.13;;;6.74;100.00
9277;BME280;4676;42.678;23.244;2023-12-22T13:09:00;92424.22;;;6.79;100.00
9277;BME280;4676;42.678;23.244;2023-12-22T13:11:27;92401.88;;;6.73;100.00
9277;BME280;4676;42.678;23.244;2023-12-22T13:13:56;92414.72;;;6.68;100.00
9277;BME280;4676;42.678;23.244;2023-12-22T13:16:24;92427.88;;;6.73;100.00
9277;BME280;4676;42.678;23.244;2023-12-22T13:18:52;92448.75;;;6.75;100.00
9277;BME280;4676;42.678;23.244;2023-12-22T13:21:18;92435.25;;;6.76;100.00
9277;BME280;4676;42.678;23.244;2023-12-22T13:23:46;92462.63;;;6.67;100.00
9277;BME280;4676;42.678;23.244;2023-12-22T13:26:20;92474.97;;;6.71;100.00
9277;BME280;4676;42.678;23.244;2023-12-22T13:28:47;92473.41;;;6.69;100.00
9277;BME280;4676;42.678;23.244;2023-12-22T13:31:14;92478.53;;;6.67;100.00
9277;BME280;4676;42.678;23.244;2023-12-22T13:33:43;92491.28;;;6.64;100.00
9277;BME280;4676;42.678;23.244;2023-12-22T13:36:10;92495.50;;;6.64;100.00
9277;BME280;4676;42.678;23.244;2023-12-22T13:38:37;92502.22;;;6.63;100.00
9277;BME280;4676;42.678;23.244;2023-12-22T13:41:07;92503.69;;;6.67;100.00
9277;BME280;4676;42.678;23.244;2023-12-22T13:43:35;92492.00;;;6.66;100.00
9277;BME280;4676;42.678;23.244;2023-12-22T13:46:02;92503.38;;;6.73;100.00
9277;BME280;4676;42.678;23.244;2023-12-22T13:48:29;92514.75;;;6.65;100.00
9277;BME280;4676;42.678;23.244;2023-12-22T13:50:57;92522.34;;;6.63;100.00
9277;BME280;4676;42.678;23.244;2023-12-22T13:53:24;92523.34;;;6.76;100.00
9277;BME280;4676;42.678;23.244;2023-12-22T13:55:54;92530.91;;;6.76;100.00
9277;BME280;4676;42.678;23.244;2023-12-22T13:58:21;92539.22;;;6.78;100.00
9277;BME280;4676;42.678;23.244;2023-12-22T14:00:49;92545.13;;;6.77;100.00
9277;BME280;4676;42.678;23.244;2023-12-22T14:03:16;92551.22;;;6.73;100.00
9277;BME280;4676;42.678;23.244;2023-12-22T14:05:47;92542.03;;;6.72;100.00
9277;BME280;4676;42.678;23.244;2023-12-22T14:08:13;92550.88;;;6.79;100.00
9277;BME280;4676;42.678;23.244;2023-12-22T14:10:44;92551.75;;;6.95;100.00
9277;BME280;4676;42.678;23.244;2023-12-22T14:13:12;92549.13;;;6.81;100.00
9277;BME280;4676;42.678;23.244;2023-12-22T14:15:38;92547.72;;;6.76;100.00
9277;BME280;4676;42.678;23.244;2023-12-22T14:18:07;92547.88;;;6.73;100.00
9277;BME280;4676;42.678;23.244;2023-12-22T14:20:34;92548.91;;;6.69;100.00
9277;BME280;4676;42.678;23.244;2023-12-22T14:23:01;92550.75;;;6.65;100.00
9277;BME280;4676;42.678;23.244;2023-12-22T14:25:29;92543.81;;;6.70;100.00
9277;BME280;4676;42.678;23.244;2023-12-22T14:27:57;92542.69;;;6.76;100.00
9277;BME280;4676;42.678;23.244;2023-12-22T14:30:24;92547.00;;;6.74;100.00
9277;BME280;4676;42.678;23.244;2023-12-22T14:32:51;92540.69;;;6.65;100.00
9277;BME280;4676;42.678;23.244;2023-12-22T14:35:19;92556.13;;;6.59;100.00
9277;BME280;4676;42.678;23.244;2023-12-22T14:37:46;92551.38;;;6.53;100.00
9277;BME280;4676;42.678;23.244;2023-12-22T14:40:13;92565.06;;;6.47;100.00
9277;BME280;4676;42.678;23.244;2023-12-22T14:42:40;92557.75;;;6.43;100.00
9277;BME280;4676;42.678;23.244;2023-12-22T14:45:07;92567.91;;;6.41;100.00
9277;BME280;4676;42.678;23.244;2023-12-22T14:47:34;92590.00;;;6.52;100.00
9277;BME280;4676;42.678;23.244;2023-12-22T14:50:01;92553.09;;;6.18;100.00
9277;BME280;4676;42.678;23.244;2023-12-22T14:52:31;92611.19;;;6.31;100.00
9277;BME280;4676;42.678;23.244;2023-12-22T14:54:58;92610.22;;;6.33;100.00
9277;BME280;4676;42.678;23.244;2023-12-22T14:57:25;92606.66;;;6.37;100.00
9277;BME280;4676;42.678;23.244;2023-12-22T14:59:54;92602.44;;;6.38;100.00
9277;BME280;4676;42.678;23.244;2023-12-22T15:02:20;92609.78;;;6.25;100.00
9277;BME280;4676;42.678;23.244;2023-12-22T15:04:47;92613.47;;;6.35;100.00
9277;BME280;4676;42.678;23.244;2023-12-22T15:07:15;92618.38;;;6.38;100.00
9277;BME280;4676;42.678;23.244;2023-12-22T15:09:43;92626.94;;;6.34;100.00
9277;BME280;4676;42.678;23.244;2023-12-22T15:12:10;92638.63;;;6.35;100.00
9277;BME280;4676;42.678;23.244;2023-12-22T15:14:36;92647.00;;;6.36;100.00
9277;BME280;4676;42.678;23.244;2023-12-22T15:17:03;92621.91;;;6.34;100.00
9277;BME280;4676;42.678;23.244;2023-12-22T15:19:30;92634.63;;;6.31;100.00
9277;BME280;4676;42.678;23.244;2023-12-22T15:21:57;92624.06;;;6.25;100.00
9277;BME280;4676;42.678;23.244;2023-12-22T15:24:23;92641.88;;;6.20;100.00
9277;BME280;4676;42.678;23.244;2023-12-22T15:26:53;92633.59;;;6.18;100.00
9277;BME280;4676;42.678;23.244;2023-12-22T15:29:19;92653.47;;;6.23;100.00
9277;BME280;4676;42.678;23.244;2023-12-22T15:31:47;92666.06;;;6.23;100.00
9277;BME280;4676;42.678;23.244;2023-12-22T15:34:14;92668.03;;;6.16;100.00
9277;BME280;4676;42.678;23.244;2023-12-22T15:36:41;92673.06;;;6.16;100.00
9277;BME280;4676;42.678;23.244;2023-12-22T15:39:08;92673.59;;;6.23;100.00
9277;BME280;4676;42.678;23.244;2023-12-22T15:41:34;92675.31;;;6.22;100.00
9277;BME280;4676;42.678;23.244;2023-12-22T15:44:03;92659.84;;;6.30;100.00
9277;BME280;4676;42.678;23.244;2023-12-22T15:46:29;92670.66;;;6.32;100.00
9277;BME280;4676;42.678;23.244;2023-12-22T15:48:56;92667.78;;;6.22;100.00
9277;BME280;4676;42.678;23.244;2023-12-22T15:51:23;92670.06;;;6.27;100.00
9277;BME280;4676;42.678;23.244;2023-12-22T15:53:50;92677.06;;;6.20;100.00
9277;BME280;4676;42.678;23.244;2023-12-22T15:56:16;92679.25;;;6.28;100.00
9277;BME280;4676;42.678;23.244;2023-12-22T15:58:44;92692.16;;;6.20;100.00
9277;BME280;4676;42.678;23.244;2023-12-22T16:01:12;92697.13;;;6.22;100.00
9277;BME280;4676;42.678;23.244;2023-12-22T16:03:40;92713.50;;;6.30;100.00
9277;BME280;4676;42.678;23.244;2023-12-22T16:06:07;92709.22;;;6.32;93.38
9277;BME280;4676;42.678;23.244;2023-12-22T16:08:34;92721.81;;;6.32;91.97
9277;BME280;4676;42.678;23.244;2023-12-22T16:11:01;92708.59;;;6.27;94.67
9277;BME280;4676;42.678;23.244;2023-12-22T16:13:28;92716.69;;;6.34;94.55
9277;BME280;4676;42.678;23.244;2023-12-22T16:15:55;92706.38;;;6.21;88.38
9277;BME280;4676;42.678;23.244;2023-12-22T16:18:23;92718.81;;;6.24;88.39
9277;BME280;4676;42.678;23.244;2023-12-22T16:20:50;92707.25;;;6.20;90.37
9277;BME280;4676;42.678;23.244;2023-12-22T16:23:17;92714.66;;;6.23;89.34
9277;BME280;4676;42.678;23.244;2023-12-22T16:25:47;92715.97;;;6.13;90.57
9277;BME280;4676;42.678;23.244;2023-12-22T16:28:16;92732.06;;;6.09;91.13
9277;BME280;4676;42.678;23.244;2023-12-22T16:30:43;92745.06;;;6.00;92.36
9277;BME280;4676;42.678;23.244;2023-12-22T16:33:10;92741.72;;;5.99;93.97
9277;BME280;4676;42.678;23.244;2023-12-22T16:35:38;92753.22;;;5.86;94.58
9277;BME280;4676;42.678;23.244;2023-12-22T16:38:05;92748.34;;;5.82;94.79
9277;BME280;4676;42.678;23.244;2023-12-22T16:40:32;92730.75;;;5.82;95.82
9277;BME280;4676;42.678;23.244;2023-12-22T16:42:58;92751.13;;;5.76;95.34
9277;BME280;4676;42.678;23.244;2023-12-22T16:45:25;92772.94;;;5.75;97.68
9277;BME280;4676;42.678;23.244;2023-12-22T16:47:52;92767.72;;;5.60;99.53
9277;BME280;4676;42.678;23.244;2023-12-22T16:50:18;92783.19;;;5.71;94.08
9277;BME280;4676;42.678;23.244;2023-12-22T16:52:46;92767.78;;;5.78;96.09
9277;BME280;4676;42.678;23.244;2023-12-22T16:55:17;92762.00;;;5.76;92.64
9277;BME280;4676;42.678;23.244;2023-12-22T16:57:48;92769.41;;;5.79;94.98
9277;BME280;4676;42.678;23.244;2023-12-22T17:00:15;92768.66;;;5.77;95.24
9277;BME280;4676;42.678;23.244;2023-12-22T17:02:44;92764.78;;;5.90;97.30
9277;BME280;4676;42.678;23.244;2023-12-22T17:05:11;92757.44;;;5.84;94.56
9277;BME280;4676;42.678;23.244;2023-12-22T17:07:38;92753.38;;;5.82;92.86
9277;BME280;4676;42.678;23.244;2023-12-22T17:10:07;92758.41;;;5.82;96.43
9277;BME280;4676;42.678;23.244;2023-12-22T17:12:34;92740.81;;;5.82;94.98
9277;BME280;4676;42.678;23.244;2023-12-22T17:15:00;92757.53;;;5.83;97.71
9277;BME280;4676;42.678;23.244;2023-12-22T17:17:28;92774.72;;;5.73;92.34
9277;BME280;4676;42.678;23.244;2023-12-22T17:19:58;92766.34;;;5.73;91.88
9277;BME280;4676;42.678;23.244;2023-12-22T17:22:24;92773.66;;;5.77;87.29
9277;BME280;4676;42.678;23.244;2023-12-22T17:24:52;92767.22;;;5.72;88.57
9277;BME280;4676;42.678;23.244;2023-12-22T17:27:20;92767.97;;;5.74;87.77
9277;BME280;4676;42.678;23.244;2023-12-22T17:29:47;92767.59;;;5.83;91.64
9277;BME280;4676;42.678;23.244;2023-12-22T17:32:13;92769.41;;;5.79;89.40
9277;BME280;4676;42.678;23.244;2023-12-22T17:34:40;92751.91;;;5.58;88.05
9277;BME280;4676;42.678;23.244;2023-12-22T17:37:07;92782.94;;;5.77;88.51
9277;BME280;4676;42.678;23.244;2023-12-22T17:39:33;92783.94;;;5.73;87.16
9277;BME280;4676;42.678;23.244;2023-12-22T17:42:00;92779.84;;;5.70;87.28
9277;BME280;4676;42.678;23.244;2023-12-22T17:44:28;92775.59;;;5.72;88.84
9277;BME280;4676;42.678;23.244;2023-12-22T17:46:55;92777.22;;;5.73;90.67
9277;BME280;4676;42.678;23.244;2023-12-22T17:49:22;92788.97;;;5.73;92.61
9277;BME280;4676;42.678;23.244;2023-12-22T17:51:48;92798.13;;;5.74;94.04
9277;BME280;4676;42.678;23.244;2023-12-22T17:54:15;92796.38;;;5.76;97.75
9277;BME280;4676;42.678;23.244;2023-12-22T17:56:42;92794.00;;;5.73;100.00
9277;BME280;4676;42.678;23.244;2023-12-22T17:59:08;92798.78;;;5.59;99.70
9277;BME280;4676;42.678;23.244;2023-12-22T18:01:39;92798.47;;;5.66;100.00
9277;BME280;4676;42.678;23.244;2023-12-22T18:04:06;92794.13;;;5.70;97.79
9277;BME280;4676;42.678;23.244;2023-12-22T18:06:33;92788.41;;;5.66;99.68
9277;BME280;4676;42.678;23.244;2023-12-22T18:09:00;92796.16;;;5.62;99.72
9277;BME280;4676;42.678;23.244;2023-12-22T18:11:28;92789.91;;;5.70;98.63
9277;BME280;4676;42.678;23.244;2023-12-22T18:13:55;92787.47;;;5.69;100.00
9277;BME280;4676;42.678;23.244;2023-12-22T18:16:22;92782.81;;;5.60;98.13
9277;BME280;4676;42.678;23.244;2023-12-22T18:18:50;92780.66;;;5.71;96.56
9277;BME280;4676;42.678;23.244;2023-12-22T18:21:17;92779.97;;;5.67;97.52
9277;BME280;4676;42.678;23.244;2023-12-22T18:23:43;92775.50;;;5.55;95.78